sensor_id;sensor_type;location;lat;lon;timestamp;temperature;humidity
21238;DHT22;10777;50.828;3.264;2022-11-20T00:02:15;8.20;99.90
21238;DHT22;10777;50.828;3.264;2022-11-20T00:04:41;7.70;99.90
21238;DHT22;10777;50.828;3.264;2022-11-20T00:07:06;7.60;99.90
21238;DHT22;10777;50.828;3.264;2022-11-20T00:09:32;7.80;99.90
21238;DHT22;10777;50.828;3.264;2022-11-20T00:11:57;7.60;99.90
21238;DHT22;10777;50.828;3.264;2022-11-20T00:14:23;7.60;99.90
21238;DHT22;10777;50.828;3.264;2022-11-20T00:16:49;7.40;99.90
21238;DHT22;10777;50.828;3.264;2022-11-20T00:19:14;7.60;99.90
21238;DHT22;10777;50.828;3.264;2022-11-20T00:21:40;8.10;99.90
21238;DHT22;10777;50.828;3.264;2022-11-20T00:24:08;8.50;99.90
21238;DHT22;10777;50.828;3.264;2022-11-20T00:26:35;8.60;99.90
21238;DHT22;10777;50.828;3.264;2022-11-20T00:29:01;8.60;99.90
21238;DHT22;10777;50.828;3.264;2022-11-20T00:31:28;8.40;99.90
21238;DHT22;10777;50.828;3.264;2022-11-20T00:33:54;8.20;99.90
21238;DHT22;10777;50.828;3.264;2022-11-20T00:36:24;8.60;99.90
21238;DHT22;10777;50.828;3.264;2022-11-20T00:38:53;8.70;99.90
21238;DHT22;10777;50.828;3.264;2022-11-20T00:41:19;8.80;99.90
21238;DHT22;10777;50.828;3.264;2022-11-20T00:43:44;8.80;99.90
21238;DHT22;10777;50.828;3.264;2022-11-20T00:46:14;8.70;99.90
21238;DHT22;10777;50.828;3.264;2022-11-20T00:48:40;8.50;99.90
21238;DHT22;10777;50.828;3.264;2022-11-20T00:51:06;8.30;99.90
21238;DHT22;10777;50.828;3.264;2022-11-20T00:53:32;8.10;99.90
21238;DHT22;10777;50.828;3.264;2022-11-20T00:56:01;8.10;99.90
21238;DHT22;10777;50.828;3.264;2022-11-20T00:58:32;8.30;99.90
21238;DHT22;10777;50.828;3.264;2022-11-20T01:01:03;8.40;99.90
21238;DHT22;10777;50.828;3.264;2022-11-20T01:03:39;8.50;99.90
21238;DHT22;10777;50.828;3.264;2022-11-20T01:06:09;8.60;99.90
21238;DHT22;10777;50.828;3.264;2022-11-20T01:08:36;8.80;99.90
21238;DHT22;10777;50.828;3.264;2022-11-20T01:11:04;8.70;99.90
21238;DHT22;10777;50.828;3.264;2022-11-20T01:13:31;8.80;99.90
21238;DHT22;10777;50.828;3.264;2022-11-20T01:16:07;8.60;99.90
21238;DHT22;10777;50.828;3.264;2022-11-20T01:18:34;8.30;99.90
21238;DHT22;10777;50.828;3.264;2022-11-20T01:21:01;8.20;99.90
21238;DHT22;10777;50.828;3.264;2022-11-20T01:23:31;8.20;99.90
21238;DHT22;10777;50.828;3.264;2022-11-20T01:25:56;8.00;99.90
21238;DHT22;10777;50.828;3.264;2022-11-20T01:28:22;8.10;99.90
21238;DHT22;10777;50.828;3.264;2022-11-20T01:30:47;8.20;99.90
21238;DHT22;10777;50.828;3.264;2022-11-20T01:33:13;8.60;99.90
21238;DHT22;10777;50.828;3.264;2022-11-20T01:35:38;8.90;99.90
21238;DHT22;10777;50.828;3.264;2022-11-20T01:38:04;8.90;99.90
21238;DHT22;10777;50.828;3.264;2022-11-20T01:40:30;9.00;99.90
21238;DHT22;10777;50.828;3.264;2022-11-20T01:43:10;8.60;99.90
21238;DHT22;10777;50.828;3.264;2022-11-20T01:46:20;8.70;99.90
21238;DHT22;10777;50.828;3.264;2022-11-20T01:49:08;8.50;99.90
21238;DHT22;10777;50.828;3.264;2022-11-20T01:51:43;8.60;99.90
21238;DHT22;10777;50.828;3.264;2022-11-20T01:54:14;8.70;99.90
21238;DHT22;10777;50.828;3.264;2022-11-20T01:56:44;8.60;99.90
21238;DHT22;10777;50.828;3.264;2022-11-20T01:59:12;8.60;99.90
21238;DHT22;10777;50.828;3.264;2022-11-20T02:01:39;8.80;99.90
21238;DHT22;10777;50.828;3.264;2022-11-20T02:04:07;8.90;99.90
21238;DHT22;10777;50.828;3.264;2022-11-20T02:06:42;9.00;99.90
21238;DHT22;10777;50.828;3.264;2022-11-20T02:09:09;9.00;99.90
21238;DHT22;10777;50.828;3.264;2022-11-20T02:11:35;8.70;99.90
21238;DHT22;10777;50.828;3.264;2022-11-20T02:14:00;9.00;99.90
21238;DHT22;10777;50.828;3.264;2022-11-20T02:16:30;8.90;99.90
21238;DHT22;10777;50.828;3.264;2022-11-20T02:18:59;8.80;99.90
21238;DHT22;10777;50.828;3.264;2022-11-20T02:21:47;8.70;99.90
21238;DHT22;10777;50.828;3.264;2022-11-20T02:24:16;8.60;99.90
21238;DHT22;10777;50.828;3.264;2022-11-20T02:26:51;8.60;99.90
21238;DHT22;10777;50.828;3.264;2022-11-20T02:29:23;8.50;99.90
21238;DHT22;10777;50.828;3.264;2022-11-20T02:31:50;8.50;99.90
21238;DHT22;10777;50.828;3.264;2022-11-20T02:34:16;8.40;99.90
21238;DHT22;10777;50.828;3.264;2022-11-20T02:36:42;8.40;99.90
21238;DHT22;10777;50.828;3.264;2022-11-20T02:39:09;8.40;99.90
21238;DHT22;10777;50.828;3.264;2022-11-20T02:41:37;8.70;99.90
21238;DHT22;10777;50.828;3.264;2022-11-20T02:44:04;8.60;99.90
21238;DHT22;10777;50.828;3.264;2022-11-20T02:46:31;8.50;99.90
21238;DHT22;10777;50.828;3.264;2022-11-20T02:48:58;8.60;99.90
21238;DHT22;10777;50.828;3.264;2022-11-20T02:51:24;8.60;99.90
21238;DHT22;10777;50.828;3.264;2022-11-20T02:53:49;8.60;99.90
21238;DHT22;10777;50.828;3.264;2022-11-20T02:56:15;8.30;99.90
21238;DHT22;10777;50.828;3.264;2022-11-20T02:58:41;8.30;99.90
21238;DHT22;10777;50.828;3.264;2022-11-20T03:01:07;8.40;99.90
21238;DHT22;10777;50.828;3.264;2022-11-20T03:03:32;8.50;99.90
21238;DHT22;10777;50.828;3.264;2022-11-20T03:05:59;8.40;99.90
21238;DHT22;10777;50.828;3.264;2022-11-20T03:08:25;8.20;99.90
21238;DHT22;10777;50.828;3.264;2022-11-20T03:10:51;8.00;99.90
21238;DHT22;10777;50.828;3.264;2022-11-20T03:13:16;8.10;99.90
21238;DHT22;10777;50.828;3.264;2022-11-20T03:15:42;8.20;99.90
21238;DHT22;10777;50.828;3.264;2022-11-20T03:18:07;8.20;99.90
21238;DHT22;10777;50.828;3.264;2022-11-20T03:20:33;8.20;99.90
21238;DHT22;10777;50.828;3.264;2022-11-20T03:22:59;8.10;99.90
21238;DHT22;10777;50.828;3.264;2022-11-20T03:25:25;8.20;99.90
21238;DHT22;10777;50.828;3.264;2022-11-20T03:27:51;8.10;99.90
21238;DHT22;10777;50.828;3.264;2022-11-20T03:30:17;7.80;99.90
21238;DHT22;10777;50.828;3.264;2022-11-20T03:32:43;7.70;99.90
21238;DHT22;10777;50.828;3.264;2022-11-20T03:35:09;7.70;99.90
21238;DHT22;10777;50.828;3.264;2022-11-20T03:37:35;7.80;99.90
21238;DHT22;10777;50.828;3.264;2022-11-20T03:40:00;7.80;99.90
21238;DHT22;10777;50.828;3.264;2022-11-20T03:42:27;7.80;99.90
21238;DHT22;10777;50.828;3.264;2022-11-20T03:45:14;7.80;99.90
21238;DHT22;10777;50.828;3.264;2022-11-20T03:47:40;7.70;99.90
21238;DHT22;10777;50.828;3.264;2022-11-20T03:50:06;7.70;99.90
21238;DHT22;10777;50.828;3.264;2022-11-20T03:52:32;7.50;99.90
21238;DHT22;10777;50.828;3.264;2022-11-20T03:54:57;7.50;99.90
21238;DHT22;10777;50.828;3.264;2022-11-20T03:57:23;7.30;99.90
21238;DHT22;10777;50.828;3.264;2022-11-20T03:59:48;7.30;99.90
21238;DHT22;10777;50.828;3.264;2022-11-20T04:02:14;7.30;99.90
21238;DHT22;10777;50.828;3.264;2022-11-20T04:04:40;7.40;99.90
21238;DHT22;10777;50.828;3.264;2022-11-20T04:07:05;7.40;99.90
21238;DHT22;10777;50.828;3.264;2022-11-20T04:09:31;7.30;99.90
21238;DHT22;10777;50.828;3.264;2022-11-20T04:11:56;7.40;99.90
21238;DHT22;10777;50.828;3.264;2022-11-20T04:14:22;7.40;99.90
21238;DHT22;10777;50.828;3.264;2022-11-20T04:16:47;7.40;99.90
21238;DHT22;10777;50.828;3.264;2022-11-20T04:19:15;7.50;99.90
21238;DHT22;10777;50.828;3.264;2022-11-20T04:21:42;7.50;99.90
21238;DHT22;10777;50.828;3.264;2022-11-20T04:24:08;7.50;99.90
21238;DHT22;10777;50.828;3.264;2022-11-20T04:26:34;7.60;99.90
21238;DHT22;10777;50.828;3.264;2022-11-20T04:29:00;7.70;99.90
21238;DHT22;10777;50.828;3.264;2022-11-20T04:31:29;7.60;99.90
21238;DHT22;10777;50.828;3.264;2022-11-20T04:33:59;7.40;99.90
21238;DHT22;10777;50.828;3.264;2022-11-20T04:36:26;7.50;99.90
21238;DHT22;10777;50.828;3.264;2022-11-20T04:38:53;7.40;99.90
21238;DHT22;10777;50.828;3.264;2022-11-20T04:41:21;7.60;99.90
21238;DHT22;10777;50.828;3.264;2022-11-20T04:43:48;7.60;99.90
21238;DHT22;10777;50.828;3.264;2022-11-20T04:46:14;7.70;99.90
21238;DHT22;10777;50.828;3.264;2022-11-20T04:48:40;7.80;99.90
21238;DHT22;10777;50.828;3.264;2022-11-20T04:51:05;7.70;99.90
21238;DHT22;10777;50.828;3.264;2022-11-20T04:53:31;7.60;99.90
21238;DHT22;10777;50.828;3.264;2022-11-20T04:56:06;7.80;99.90
21238;DHT22;10777;50.828;3.264;2022-11-20T04:58:33;7.70;99.90
21238;DHT22;10777;50.828;3.264;2022-11-20T05:01:15;7.90;99.90
21238;DHT22;10777;50.828;3.264;2022-11-20T05:03:42;8.00;99.90
21238;DHT22;10777;50.828;3.264;2022-11-20T05:06:10;7.90;99.90
21238;DHT22;10777;50.828;3.264;2022-11-20T05:08:35;8.10;99.90
21238;DHT22;10777;50.828;3.264;2022-11-20T05:11:07;8.00;99.90
21238;DHT22;10777;50.828;3.264;2022-11-20T05:13:33;7.90;99.90
21238;DHT22;10777;50.828;3.264;2022-11-20T05:16:08;7.80;99.90
21238;DHT22;10777;50.828;3.264;2022-11-20T05:18:35;7.60;99.90
21238;DHT22;10777;50.828;3.264;2022-11-20T05:21:01;7.60;99.90
21238;DHT22;10777;50.828;3.264;2022-11-20T05:23:28;7.60;99.90
21238;DHT22;10777;50.828;3.264;2022-11-20T05:25:56;7.50;99.90
21238;DHT22;10777;50.828;3.264;2022-11-20T05:28:22;7.40;99.90
21238;DHT22;10777;50.828;3.264;2022-11-20T05:30:48;7.30;99.90
21238;DHT22;10777;50.828;3.264;2022-11-20T05:33:14;7.40;99.90
21238;DHT22;10777;50.828;3.264;2022-11-20T05:35:40;7.40;99.90
21238;DHT22;10777;50.828;3.264;2022-11-20T05:38:06;7.20;99.90
21238;DHT22;10777;50.828;3.264;2022-11-20T05:40:32;7.30;99.90
21238;DHT22;10777;50.828;3.264;2022-11-20T05:42:57;7.40;99.90
21238;DHT22;10777;50.828;3.264;2022-11-20T05:45:23;7.50;99.90
21238;DHT22;10777;50.828;3.264;2022-11-20T05:47:48;7.60;99.90
21238;DHT22;10777;50.828;3.264;2022-11-20T05:50:14;7.60;99.90
21238;DHT22;10777;50.828;3.264;2022-11-20T05:52:40;7.70;99.90
21238;DHT22;10777;50.828;3.264;2022-11-20T05:55:06;7.90;99.90
21238;DHT22;10777;50.828;3.264;2022-11-20T05:57:32;7.80;99.90
21238;DHT22;10777;50.828;3.264;2022-11-20T05:59:57;7.40;99.90
21238;DHT22;10777;50.828;3.264;2022-11-20T06:02:23;7.70;99.90
21238;DHT22;10777;50.828;3.264;2022-11-20T06:04:49;7.60;99.90
21238;DHT22;10777;50.828;3.264;2022-11-20T06:07:15;7.60;99.90
21238;DHT22;10777;50.828;3.264;2022-11-20T06:09:40;7.60;99.90
21238;DHT22;10777;50.828;3.264;2022-11-20T06:12:06;7.60;99.90
21238;DHT22;10777;50.828;3.264;2022-11-20T06:14:32;7.60;99.90
21238;DHT22;10777;50.828;3.264;2022-11-20T06:16:58;7.60;99.90
21238;DHT22;10777;50.828;3.264;2022-11-20T06:19:24;7.60;99.90
21238;DHT22;10777;50.828;3.264;2022-11-20T06:21:49;7.50;99.90
21238;DHT22;10777;50.828;3.264;2022-11-20T06:24:16;7.70;99.90
21238;DHT22;10777;50.828;3.264;2022-11-20T06:26:42;7.70;99.90
21238;DHT22;10777;50.828;3.264;2022-11-20T06:29:07;7.70;99.90
21238;DHT22;10777;50.828;3.264;2022-11-20T06:31:33;7.70;99.90
21238;DHT22;10777;50.828;3.264;2022-11-20T06:34:01;7.80;99.90
21238;DHT22;10777;50.828;3.264;2022-11-20T06:36:26;8.00;99.90
21238;DHT22;10777;50.828;3.264;2022-11-20T06:38:52;7.90;99.90
21238;DHT22;10777;50.828;3.264;2022-11-20T06:41:20;8.10;99.90
21238;DHT22;10777;50.828;3.264;2022-11-20T06:43:46;8.20;99.90
21238;DHT22;10777;50.828;3.264;2022-11-20T06:46:13;8.00;99.90
21238;DHT22;10777;50.828;3.264;2022-11-20T06:48:39;8.10;99.90
21238;DHT22;10777;50.828;3.264;2022-11-20T06:51:07;8.20;99.90
21238;DHT22;10777;50.828;3.264;2022-11-20T06:53:33;8.20;99.90
21238;DHT22;10777;50.828;3.264;2022-11-20T06:55:59;8.40;99.90
21238;DHT22;10777;50.828;3.264;2022-11-20T06:58:27;8.30;99.90
21238;DHT22;10777;50.828;3.264;2022-11-20T07:00:54;8.40;99.90
21238;DHT22;10777;50.828;3.264;2022-11-20T07:03:22;8.40;99.90
21238;DHT22;10777;50.828;3.264;2022-11-20T07:05:48;8.50;99.90
21238;DHT22;10777;50.828;3.264;2022-11-20T07:08:14;8.40;99.90
21238;DHT22;10777;50.828;3.264;2022-11-20T07:10:39;8.50;99.90
21238;DHT22;10777;50.828;3.264;2022-11-20T07:13:05;8.50;99.90
21238;DHT22;10777;50.828;3.264;2022-11-20T07:15:32;8.50;99.90
21238;DHT22;10777;50.828;3.264;2022-11-20T07:17:59;8.50;99.90
21238;DHT22;10777;50.828;3.264;2022-11-20T07:20:25;8.40;99.90
21238;DHT22;10777;50.828;3.264;2022-11-20T07:22:59;8.60;99.90
21238;DHT22;10777;50.828;3.264;2022-11-20T07:25:25;8.60;99.90
21238;DHT22;10777;50.828;3.264;2022-11-20T07:27:51;8.60;99.90
21238;DHT22;10777;50.828;3.264;2022-11-20T07:30:17;8.50;99.90
21238;DHT22;10777;50.828;3.264;2022-11-20T07:32:46;8.40;99.90
21238;DHT22;10777;50.828;3.264;2022-11-20T07:35:13;8.40;99.90
21238;DHT22;10777;50.828;3.264;2022-11-20T07:37:38;8.30;99.90
21238;DHT22;10777;50.828;3.264;2022-11-20T07:40:04;8.20;99.90
21238;DHT22;10777;50.828;3.264;2022-11-20T07:42:30;8.30;99.90
21238;DHT22;10777;50.828;3.264;2022-11-20T07:44:55;8.30;99.90
21238;DHT22;10777;50.828;3.264;2022-11-20T07:47:21;8.50;99.90
21238;DHT22;10777;50.828;3.264;2022-11-20T07:49:46;8.30;99.90
21238;DHT22;10777;50.828;3.264;2022-11-20T07:52:12;8.10;99.90
21238;DHT22;10777;50.828;3.264;2022-11-20T07:54:37;8.30;99.90
21238;DHT22;10777;50.828;3.264;2022-11-20T07:57:03;8.20;99.90
21238;DHT22;10777;50.828;3.264;2022-11-20T07:59:29;8.30;99.90
21238;DHT22;10777;50.828;3.264;2022-11-20T08:01:55;8.30;99.90
21238;DHT22;10777;50.828;3.264;2022-11-20T08:04:20;8.40;99.90
21238;DHT22;10777;50.828;3.264;2022-11-20T08:06:46;8.50;99.90
21238;DHT22;10777;50.828;3.264;2022-11-20T08:09:12;8.50;99.90
21238;DHT22;10777;50.828;3.264;2022-11-20T08:11:38;8.40;99.90
21238;DHT22;10777;50.828;3.264;2022-11-20T08:14:23;8.40;99.90
21238;DHT22;10777;50.828;3.264;2022-11-20T08:16:49;8.60;99.90
21238;DHT22;10777;50.828;3.264;2022-11-20T08:19:16;8.70;99.90
21238;DHT22;10777;50.828;3.264;2022-11-20T08:21:42;8.70;99.90
21238;DHT22;10777;50.828;3.264;2022-11-20T08:24:09;8.70;99.90
21238;DHT22;10777;50.828;3.264;2022-11-20T08:26:36;8.70;99.90
21238;DHT22;10777;50.828;3.264;2022-11-20T08:29:02;8.70;99.90
21238;DHT22;10777;50.828;3.264;2022-11-20T08:31:29;8.80;99.90
21238;DHT22;10777;50.828;3.264;2022-11-20T08:33:55;9.00;99.90
21238;DHT22;10777;50.828;3.264;2022-11-20T08:36:22;8.90;99.90
21238;DHT22;10777;50.828;3.264;2022-11-20T08:38:49;8.80;99.90
21238;DHT22;10777;50.828;3.264;2022-11-20T08:41:15;8.90;99.90
21238;DHT22;10777;50.828;3.264;2022-11-20T08:44:00;8.90;99.90
21238;DHT22;10777;50.828;3.264;2022-11-20T08:46:31;8.90;99.90
21238;DHT22;10777;50.828;3.264;2022-11-20T08:48:58;8.90;99.90
21238;DHT22;10777;50.828;3.264;2022-11-20T08:51:24;8.90;99.90
21238;DHT22;10777;50.828;3.264;2022-11-20T08:53:49;9.20;99.90
21238;DHT22;10777;50.828;3.264;2022-11-20T08:56:16;9.00;99.90
21238;DHT22;10777;50.828;3.264;2022-11-20T08:58:42;9.20;99.90
21238;DHT22;10777;50.828;3.264;2022-11-20T09:01:07;8.90;99.90
21238;DHT22;10777;50.828;3.264;2022-11-20T09:03:33;9.10;99.90
21238;DHT22;10777;50.828;3.264;2022-11-20T09:06:00;9.10;99.90
21238;DHT22;10777;50.828;3.264;2022-11-20T09:08:26;9.20;99.90
21238;DHT22;10777;50.828;3.264;2022-11-20T09:10:53;9.20;99.90
21238;DHT22;10777;50.828;3.264;2022-11-20T09:13:20;9.30;99.90
21238;DHT22;10777;50.828;3.264;2022-11-20T09:15:46;9.30;99.90
21238;DHT22;10777;50.828;3.264;2022-11-20T09:18:12;9.20;99.90
21238;DHT22;10777;50.828;3.264;2022-11-20T09:20:38;9.20;99.90
21238;DHT22;10777;50.828;3.264;2022-11-20T09:23:04;9.40;99.90
21238;DHT22;10777;50.828;3.264;2022-11-20T09:25:29;9.10;99.90
21238;DHT22;10777;50.828;3.264;2022-11-20T09:27:57;9.50;99.90
21238;DHT22;10777;50.828;3.264;2022-11-20T09:30:24;9.50;99.90
21238;DHT22;10777;50.828;3.264;2022-11-20T09:32:49;9.60;99.90
21238;DHT22;10777;50.828;3.264;2022-11-20T09:35:15;9.60;99.90
21238;DHT22;10777;50.828;3.264;2022-11-20T09:37:41;9.70;99.90
21238;DHT22;10777;50.828;3.264;2022-11-20T09:40:10;9.70;99.90
21238;DHT22;10777;50.828;3.264;2022-11-20T09:42:46;10.00;99.90
21238;DHT22;10777;50.828;3.264;2022-11-20T09:45:37;9.90;99.90
21238;DHT22;10777;50.828;3.264;2022-11-20T09:48:25;9.90;99.90
21238;DHT22;10777;50.828;3.264;2022-11-20T09:51:06;10.00;99.90
21238;DHT22;10777;50.828;3.264;2022-11-20T09:54:00;10.10;99.90
21238;DHT22;10777;50.828;3.264;2022-11-20T09:56:30;10.00;99.90
21238;DHT22;10777;50.828;3.264;2022-11-20T09:59:01;10.00;99.90
21238;DHT22;10777;50.828;3.264;2022-11-20T10:01:33;10.00;99.90
21238;DHT22;10777;50.828;3.264;2022-11-20T10:04:17;10.00;99.90
21238;DHT22;10777;50.828;3.264;2022-11-20T10:09:36;9.90;99.90
21238;DHT22;10777;50.828;3.264;2022-11-20T10:12:17;9.90;99.90
21238;DHT22;10777;50.828;3.264;2022-11-20T10:14:55;10.00;99.90
21238;DHT22;10777;50.828;3.264;2022-11-20T10:17:46;10.10;99.90
21238;DHT22;10777;50.828;3.264;2022-11-20T10:20:28;9.90;99.90
21238;DHT22;10777;50.828;3.264;2022-11-20T10:23:24;10.00;99.90
21238;DHT22;10777;50.828;3.264;2022-11-20T10:26:03;10.20;99.90
21238;DHT22;10777;50.828;3.264;2022-11-20T10:31:40;9.90;99.90
21238;DHT22;10777;50.828;3.264;2022-11-20T10:34:17;9.90;99.90
21238;DHT22;10777;50.828;3.264;2022-11-20T10:36:49;9.80;99.90
21238;DHT22;10777;50.828;3.264;2022-11-20T10:39:25;9.90;99.90
21238;DHT22;10777;50.828;3.264;2022-11-20T10:41:52;9.70;99.90
21238;DHT22;10777;50.828;3.264;2022-11-20T10:44:22;9.70;99.90
21238;DHT22;10777;50.828;3.264;2022-11-20T10:47:13;9.90;99.90
21238;DHT22;10777;50.828;3.264;2022-11-20T10:49:42;9.90;99.90
21238;DHT22;10777;50.828;3.264;2022-11-20T10:52:32;9.90;99.90
21238;DHT22;10777;50.828;3.264;2022-11-20T10:55:39;10.00;99.90
21238;DHT22;10777;50.828;3.264;2022-11-20T10:58:20;9.90;99.90
21238;DHT22;10777;50.828;3.264;2022-11-20T11:00:47;9.90;99.90
21238;DHT22;10777;50.828;3.264;2022-11-20T11:03:25;9.80;99.90
21238;DHT22;10777;50.828;3.264;2022-11-20T11:08:50;10.00;99.90
21238;DHT22;10777;50.828;3.264;2022-11-20T11:11:22;9.70;99.90
21238;DHT22;10777;50.828;3.264;2022-11-20T11:13:49;9.70;99.90
21238;DHT22;10777;50.828;3.264;2022-11-20T11:16:24;9.80;99.90
21238;DHT22;10777;50.828;3.264;2022-11-20T11:18:50;9.60;99.90
21238;DHT22;10777;50.828;3.264;2022-11-20T11:21:25;9.50;99.90
21238;DHT22;10777;50.828;3.264;2022-11-20T11:24:18;9.50;99.90
21238;DHT22;10777;50.828;3.264;2022-11-20T11:29:36;9.50;99.90
21238;DHT22;10777;50.828;3.264;2022-11-20T11:32:08;9.40;99.90
21238;DHT22;10777;50.828;3.264;2022-11-20T11:34:36;9.20;99.90
21238;DHT22;10777;50.828;3.264;2022-11-20T11:37:02;9.20;99.90
21238;DHT22;10777;50.828;3.264;2022-11-20T11:39:31;9.30;99.90
21238;DHT22;10777;50.828;3.264;2022-11-20T11:41:58;9.30;99.90
21238;DHT22;10777;50.828;3.264;2022-11-20T11:44:30;9.20;99.90
21238;DHT22;10777;50.828;3.264;2022-11-20T11:47:24;9.20;99.90
21238;DHT22;10777;50.828;3.264;2022-11-20T11:50:16;9.10;99.90
21238;DHT22;10777;50.828;3.264;2022-11-20T11:53:08;9.30;99.90
21238;DHT22;10777;50.828;3.264;2022-11-20T11:55:40;9.20;99.90
21238;DHT22;10777;50.828;3.264;2022-11-20T11:58:28;9.40;99.90
21238;DHT22;10777;50.828;3.264;2022-11-20T12:01:02;9.20;99.90
21238;DHT22;10777;50.828;3.264;2022-11-20T12:03:36;9.20;99.90
21238;DHT22;10777;50.828;3.264;2022-11-20T12:06:11;9.20;99.90
21238;DHT22;10777;50.828;3.264;2022-11-20T12:08:53;9.30;99.90
21238;DHT22;10777;50.828;3.264;2022-11-20T12:11:32;9.50;99.90
21238;DHT22;10777;50.828;3.264;2022-11-20T12:14:08;9.30;99.90
21238;DHT22;10777;50.828;3.264;2022-11-20T12:16:37;9.40;99.90
21238;DHT22;10777;50.828;3.264;2022-11-20T12:19:12;9.40;99.90
21238;DHT22;10777;50.828;3.264;2022-11-20T12:21:49;9.50;99.90
21238;DHT22;10777;50.828;3.264;2022-11-20T12:24:42;9.30;99.90
21238;DHT22;10777;50.828;3.264;2022-11-20T12:27:36;9.40;99.90
21238;DHT22;10777;50.828;3.264;2022-11-20T12:30:15;9.30;99.90
21238;DHT22;10777;50.828;3.264;2022-11-20T12:32:57;9.30;99.90
21238;DHT22;10777;50.828;3.264;2022-11-20T12:41:48;9.50;99.90
21238;DHT22;10777;50.828;3.264;2022-11-20T12:53:51;9.60;99.90
21238;DHT22;10777;50.828;3.264;2022-11-20T12:59:55;9.70;99.90
21238;DHT22;10777;50.828;3.264;2022-11-20T13:05:21;9.70;99.90
21238;DHT22;10777;50.828;3.264;2022-11-20T13:07:52;9.90;99.90
21238;DHT22;10777;50.828;3.264;2022-11-20T13:10:31;10.00;99.90
21238;DHT22;10777;50.828;3.264;2022-11-20T13:13:16;10.00;99.90
21238;DHT22;10777;50.828;3.264;2022-11-20T13:15:58;10.10;99.90
21238;DHT22;10777;50.828;3.264;2022-11-20T13:18:25;10.20;99.90
21238;DHT22;10777;50.828;3.264;2022-11-20T13:20:51;10.20;99.90
21238;DHT22;10777;50.828;3.264;2022-11-20T13:23:26;10.30;99.90
21238;DHT22;10777;50.828;3.264;2022-11-20T13:26:04;10.20;99.90
21238;DHT22;10777;50.828;3.264;2022-11-20T13:28:30;10.30;99.90
21238;DHT22;10777;50.828;3.264;2022-11-20T13:30:57;10.40;99.90
21238;DHT22;10777;50.828;3.264;2022-11-20T13:33:29;10.40;99.90
21238;DHT22;10777;50.828;3.264;2022-11-20T13:35:59;10.40;99.90
21238;DHT22;10777;50.828;3.264;2022-11-20T13:38:26;10.80;99.90
21238;DHT22;10777;50.828;3.264;2022-11-20T13:40:54;10.80;99.90
21238;DHT22;10777;50.828;3.264;2022-11-20T13:43:35;11.00;99.90
21238;DHT22;10777;50.828;3.264;2022-11-20T13:46:04;11.00;99.90
21238;DHT22;10777;50.828;3.264;2022-11-20T13:48:39;11.20;99.90
21238;DHT22;10777;50.828;3.264;2022-11-20T13:51:31;11.10;99.90
21238;DHT22;10777;50.828;3.264;2022-11-20T14:00:16;11.70;99.90
21238;DHT22;10777;50.828;3.264;2022-11-20T14:02:43;11.70;99.90
21238;DHT22;10777;50.828;3.264;2022-11-20T14:05:21;11.70;99.90
21238;DHT22;10777;50.828;3.264;2022-11-20T14:07:49;11.60;99.90
21238;DHT22;10777;50.828;3.264;2022-11-20T14:10:28;11.30;99.90
21238;DHT22;10777;50.828;3.264;2022-11-20T14:12:54;11.30;99.90
21238;DHT22;10777;50.828;3.264;2022-11-20T14:15:30;11.20;99.90
21238;DHT22;10777;50.828;3.264;2022-11-20T14:17:58;11.20;99.90
21238;DHT22;10777;50.828;3.264;2022-11-20T14:20:26;11.50;99.90
21238;DHT22;10777;50.828;3.264;2022-11-20T14:22:53;11.50;99.90
21238;DHT22;10777;50.828;3.264;2022-11-20T14:25:22;11.40;99.90
21238;DHT22;10777;50.828;3.264;2022-11-20T14:27:53;11.30;99.90
21238;DHT22;10777;50.828;3.264;2022-11-20T14:30:23;11.30;99.90
21238;DHT22;10777;50.828;3.264;2022-11-20T14:32:50;11.30;99.90
21238;DHT22;10777;50.828;3.264;2022-11-20T14:35:37;11.30;99.90
21238;DHT22;10777;50.828;3.264;2022-11-20T14:38:11;11.30;99.90
21238;DHT22;10777;50.828;3.264;2022-11-20T14:40:38;11.40;99.90
21238;DHT22;10777;50.828;3.264;2022-11-20T14:43:24;11.40;99.90
21238;DHT22;10777;50.828;3.264;2022-11-20T14:46:00;11.40;99.90
21238;DHT22;10777;50.828;3.264;2022-11-20T14:48:32;11.40;99.90
21238;DHT22;10777;50.828;3.264;2022-11-20T14:50:59;11.50;99.90
21238;DHT22;10777;50.828;3.264;2022-11-20T14:53:25;11.40;99.90
21238;DHT22;10777;50.828;3.264;2022-11-20T14:56:00;11.40;99.90
21238;DHT22;10777;50.828;3.264;2022-11-20T14:58:29;11.50;99.90
21238;DHT22;10777;50.828;3.264;2022-11-20T15:00:57;11.50;99.90
21238;DHT22;10777;50.828;3.264;2022-11-20T15:03:30;11.60;99.90
21238;DHT22;10777;50.828;3.264;2022-11-20T15:05:55;11.60;99.90
21238;DHT22;10777;50.828;3.264;2022-11-20T15:08:21;11.50;99.90
21238;DHT22;10777;50.828;3.264;2022-11-20T15:10:51;11.40;99.90
21238;DHT22;10777;50.828;3.264;2022-11-20T15:13:32;11.20;99.90
21238;DHT22;10777;50.828;3.264;2022-11-20T15:16:00;11.30;99.90
21238;DHT22;10777;50.828;3.264;2022-11-20T15:18:30;11.20;99.90
21238;DHT22;10777;50.828;3.264;2022-11-20T15:20:58;11.20;99.90
21238;DHT22;10777;50.828;3.264;2022-11-20T15:23:26;11.20;99.90
21238;DHT22;10777;50.828;3.264;2022-11-20T15:25:52;11.10;99.90
21238;DHT22;10777;50.828;3.264;2022-11-20T15:28:27;11.10;99.90
21238;DHT22;10777;50.828;3.264;2022-11-20T15:30:54;10.90;99.90
21238;DHT22;10777;50.828;3.264;2022-11-20T15:33:21;11.00;99.90
21238;DHT22;10777;50.828;3.264;2022-11-20T15:35:46;10.90;99.90
21238;DHT22;10777;50.828;3.264;2022-11-20T15:38:12;11.00;99.90
21238;DHT22;10777;50.828;3.264;2022-11-20T15:40:38;11.10;99.90
21238;DHT22;10777;50.828;3.264;2022-11-20T15:43:03;11.10;99.90
21238;DHT22;10777;50.828;3.264;2022-11-20T15:45:35;11.10;99.90
21238;DHT22;10777;50.828;3.264;2022-11-20T15:48:02;11.10;99.90
21238;DHT22;10777;50.828;3.264;2022-11-20T15:50:37;11.00;99.90
21238;DHT22;10777;50.828;3.264;2022-11-20T15:53:03;11.00;99.90
21238;DHT22;10777;50.828;3.264;2022-11-20T15:55:30;11.00;99.90
21238;DHT22;10777;50.828;3.264;2022-11-20T15:57:56;11.10;99.90
21238;DHT22;10777;50.828;3.264;2022-11-20T16:00:21;11.10;99.90
21238;DHT22;10777;50.828;3.264;2022-11-20T16:02:48;11.10;99.90
21238;DHT22;10777;50.828;3.264;2022-11-20T16:05:14;11.20;99.90
21238;DHT22;10777;50.828;3.264;2022-11-20T16:07:40;11.30;99.90
21238;DHT22;10777;50.828;3.264;2022-11-20T16:10:06;11.50;99.90
21238;DHT22;10777;50.828;3.264;2022-11-20T16:12:31;11.40;99.90
21238;DHT22;10777;50.828;3.264;2022-11-20T16:15:18;11.40;99.90
21238;DHT22;10777;50.828;3.264;2022-11-20T16:18:03;11.40;99.90
21238;DHT22;10777;50.828;3.264;2022-11-20T16:20:29;11.60;99.90
21238;DHT22;10777;50.828;3.264;2022-11-20T16:22:55;11.50;99.90
21238;DHT22;10777;50.828;3.264;2022-11-20T16:25:20;11.50;99.90
21238;DHT22;10777;50.828;3.264;2022-11-20T16:27:46;11.20;99.90
21238;DHT22;10777;50.828;3.264;2022-11-20T16:30:13;11.40;99.90
21238;DHT22;10777;50.828;3.264;2022-11-20T16:32:39;11.20;99.90
21238;DHT22;10777;50.828;3.264;2022-11-20T16:35:05;11.20;99.90
21238;DHT22;10777;50.828;3.264;2022-11-20T16:37:32;11.10;99.90
21238;DHT22;10777;50.828;3.264;2022-11-20T16:39:58;10.80;99.90